createdAt,value
2023-02-02T07:33:32.010Z,25.64
2023-02-02T07:34:31.922Z,25.87
2023-02-02T07:35:31.855Z,25.95
2023-02-02T07:36:31.704Z,26.12
2023-02-02T07:37:57.571Z,26.15
2023-02-02T07:43:11.856Z,25.33
2023-02-02T07:44:55.672Z,25.65
2023-02-02T07:45:55.628Z,25.96
2023-02-02T07:47:11.027Z,26.08
2023-02-02T07:49:10.850Z,26.35
2023-02-02T07:50:58.775Z,26.47
2023-02-02T07:52:37.049Z,26.50
2023-02-02T07:54:48.609Z,26.46
2023-02-02T07:56:28.471Z,26.32
2023-02-02T07:57:28.428Z,26.37
2023-02-02T07:58:28.385Z,26.53
2023-02-02T07:59:29.211Z,26.64
2023-02-02T08:00:28.469Z,26.71
2023-02-02T08:01:28.442Z,26.64
2023-02-02T08:02:28.301Z,26.76
2023-02-02T08:03:28.263Z,26.76
2023-02-02T08:04:28.253Z,26.83
2023-02-02T08:05:28.473Z,26.68
2023-02-02T08:06:28.320Z,26.44
2023-02-02T08:07:28.395Z,26.33
2023-02-02T08:08:28.436Z,26.16
2023-02-02T08:09:28.395Z,25.88
2023-02-02T08:10:28.378Z,25.65
2023-02-02T08:11:28.353Z,25.54
2023-02-02T08:12:28.394Z,25.72
2023-02-02T08:13:28.386Z,25.54
2023-02-02T08:14:28.380Z,25.45
2023-02-02T08:15:28.542Z,25.33
2023-02-02T08:16:28.619Z,25.13
2023-02-02T08:17:28.476Z,25.06
2023-02-02T08:18:28.524Z,25.06
2023-02-02T08:19:28.563Z,24.96
2023-02-02T08:20:28.531Z,24.94
2023-02-02T08:21:28.574Z,24.85
2023-02-02T08:22:28.571Z,24.87
2023-02-02T08:23:28.556Z,24.85
2023-02-02T08:24:28.564Z,24.65
2023-02-02T08:25:28.568Z,24.73
2023-02-02T08:26:28.640Z,24.62
